Latest Weather Observations for Rowley Shoals

IDW60801

Issued at 1:05 pm WST Thursday 31 July 2014 (issued every 30 minutes, with the page automatically refreshed every 10 minutes)

About weather observations | Map of weather stations | Latest weather observations for WA | Other Formats
Station Details ID: 200713 Name: ROWLEY SHOALS Lat: -17.52 Lon: 118.95 Height: 0.0 m
Data from the previous 72 hours. | See also: Recent months for locations in Western Australia
Date/Time
WST
Temp
°C
App
Temp
°C
Dew
Point
Rel
Hum
%
Delta-T
°C
Wind Press
QNH
hPa
Press
MSL
hPa
Rain
since 9 am
mm
Dir
 
Spd
km/h
Gust
km/h
Spd
kts
Gust
kts
31/01:00pm - - - - - E 22 26 12 14 1015.2 - -
31/12:30pm - - - - - E 24 28 13 15 1015.4 - -
31/12:00pm - - - - - E 22 28 12 15 1015.9 1015.7 -
31/11:30am - - - - - E 24 28 13 15 1016.3 - -
31/11:00am - - - - - E 26 30 14 16 1016.4 1016.4 -
31/10:30am - - - - - E 26 30 14 16 1016.7 - -
31/10:00am - - - - - E 24 28 13 15 1016.8 1016.7 -
31/09:30am - - - - - E 19 24 10 13 1016.7 - -
31/09:00am - - - - - SE 19 24 10 13 1016.3 1016.5 -
31/08:30am - - - - - SSE 22 26 12 14 1016.0 - -
31/08:00am - - - - - SSE 22 20 12 11 1015.9 1015.9 -
31/07:30am - - - - - ESE 17 20 9 11 1016.0 - -
31/07:00am - - - - - ESE 17 19 9 10 1016.0 1015.9 -
31/06:30am - - - - - ESE 15 17 8 9 1015.6 - -
31/06:00am - - - - - E 13 15 7 8 1015.5 1015.6 -
31/05:30am - - - - - E 13 15 7 8 1015.4 - -
31/05:00am - - - - - ENE 11 13 6 7 1015.3 1015.3 -
31/04:30am - - - - - NE 15 20 8 11 1015.1 - -
31/04:00am - - - - - SE 7 11 4 6 1015.0 1015.1 -
31/03:30am - - - - - S 7 9 4 5 1015.0 - -
31/03:00am - - - - - SSE 9 9 5 5 1015.0 1015.0 -
31/02:30am - - - - - SE 9 13 5 7 1015.2 - -
31/02:00am - - - - - S 6 9 3 5 1015.2 1015.3 -
31/01:30am - - - - - ESE 7 9 4 5 1015.4 - -
31/01:00am - - - - - ESE 7 9 4 5 1015.4 1015.5 -
31/12:30am - - - - - SSE 6 7 3 4 1015.6 - -
31/12:00am - - - - - ESE 7 9 4 5 1015.6 1015.6 -
 
Date/Time
WST
Temp
°C
App
Temp
°C
Dew
Point
Rel
Hum
%
Delta-T
°C
Wind Press
QNH
hPa
Press
MSL
hPa
Rain
since 9 am
mm
Dir
 
Spd
km/h
Gust
km/h
Spd
kts
Gust
kts
30/11:30pm - - - - - ESE 9 9 5 5 1015.6 - -
30/11:00pm - - - - - ESE 7 11 4 6 1015.8 1015.8 -
30/10:30pm - - - - - ESE 11 13 6 7 1015.9 - -
30/10:00pm - - - - - SE 13 15 7 8 1016.0 1015.9 -
30/09:30pm - - - - - SE 15 17 8 9 1015.9 - -
30/09:00pm - - - - - SE 15 17 8 9 1016.0 1016.0 -
30/08:30pm - - - - - SE 17 19 9 10 1015.9 - -
30/08:00pm - - - - - SE 15 20 8 11 1015.7 1015.8 -
30/07:30pm - - - - - ESE 17 19 9 10 1015.5 - -
30/07:00pm - - - - - SE 19 20 10 11 1015.3 1015.4 -
30/06:30pm - - - - - ESE 20 24 11 13 1015.0 - -
30/06:00pm - - - - - SE 20 24 11 13 1015.0 1014.9 -
30/05:30pm - - - - - ESE 24 28 13 15 1014.8 - -
30/05:00pm - - - - - ESE 22 26 12 14 1014.6 1014.6 -
30/04:30pm - - - - - E 22 24 12 13 1014.4 - -
30/04:00pm - - - - - E 20 20 11 11 1014.3 1014.2 -
30/03:30pm - - - - - E 19 24 10 13 1014.2 - -
30/03:00pm - - - - - E 22 24 12 13 1014.2 1014.2 -
30/02:30pm - - - - - E 20 24 11 13 1014.2 - -
30/02:00pm - - - - - E 22 26 12 14 1014.6 1014.5 -
30/01:30pm - - - - - E 24 28 13 15 1015.0 - -
30/01:00pm - - - - - E 22 26 12 14 1015.4 1015.3 -
30/12:30pm - - - - - E 24 30 13 16 1015.6 - -
30/12:00pm - - - - - E 26 32 14 17 1016.1 1015.9 -
30/11:30am - - - - - ESE 28 32 15 17 1016.1 - -
30/11:00am - - - - - ESE 24 28 13 15 1016.4 1016.4 -
30/10:30am - - - - - SE 22 26 12 14 1016.5 - -
30/10:00am - - - - - ESE 19 22 10 12 1016.9 1016.7 -
30/09:30am - - - - - ESE 19 20 10 11 1017.1 - -
30/09:00am - - - - - ESE 17 17 9 9 1017.1 1017.1 -
30/08:30am - - - - - SE 17 20 9 11 1017.2 - -
30/08:00am - - - - - SE 17 19 9 10 1016.9 1017.0 -
30/07:30am - - - - - SSE 15 17 8 9 1016.7 - -
30/07:00am - - - - - SSE 13 17 7 9 1016.6 1016.6 -
30/06:30am - - - - - SSE 15 19 8 10 1016.3 - -
30/06:00am - - - - - SSE 15 22 8 12 1016.1 1016.2 -
30/05:30am - - - - - SSE 17 20 9 11 1015.8 - -
30/05:00am - - - - - SSE 15 15 8 8 1015.5 1015.8 -
30/04:30am - - - - - SSE 13 19 7 10 1015.2 - -
30/04:00am - - - - - SE 11 20 6 11 1015.2 1015.4 -
30/03:30am - - - - - S 6 9 3 5 1015.2 - -
30/03:00am - - - - - S 6 9 3 5 1015.1 1015.1 -
30/02:30am - - - - - SSE 11 13 6 7 1015.2 - -
30/02:00am - - - - - SE 11 15 6 8 1015.5 1015.5 -
30/01:30am - - - - - SE 11 13 6 7 1015.8 - -
30/01:00am - - - - - SE 13 15 7 8 1015.9 1015.8 -
30/12:30am - - - - - SE 13 15 7 8 1016.0 - -
30/12:00am - - - - - SE 15 15 8 8 1016.0 1016.0 -
 
Date/Time
WST
Temp
°C
App
Temp
°C
Dew
Point
Rel
Hum
%
Delta-T
°C
Wind Press
QNH
hPa
Press
MSL
hPa
Rain
since 9 am
mm
Dir
 
Spd
km/h
Gust
km/h
Spd
kts
Gust
kts
29/11:30pm - - - - - SE 15 17 8 9 1016.1 - -
29/11:00pm - - - - - ESE 15 19 8 10 1016.3 1016.2 -
29/10:30pm - - - - - ESE 17 19 9 10 1016.4 - -
29/10:00pm - - - - - ESE 19 20 10 11 1016.4 1016.3 -
29/09:30pm - - - - - ESE 20 22 11 12 1016.4 - -
29/09:00pm - - - - - ESE 20 20 11 11 1016.4 1016.4 -
29/08:30pm - - - - - ESE 19 24 10 13 1016.3 - -
29/08:00pm - - - - - ESE 19 22 10 12 1016.1 1016.1 -
29/07:30pm - - - - - ESE 20 24 11 13 1015.9 - -
29/07:00pm - - - - - SE 20 24 11 13 1015.7 1015.8 -
29/06:30pm - - - - - ESE 20 22 11 12 1015.4 - -
29/06:00pm - - - - - ESE 20 24 11 13 1015.2 1015.3 -
29/05:30pm - - - - - ESE 19 20 10 11 1014.9 - -
29/05:00pm - - - - - SE 19 22 10 12 1014.6 1014.7 -
29/04:30pm - - - - - ESE 20 24 11 13 1014.6 - -
29/04:00pm - - - - - ESE 20 24 11 13 1014.4 1014.5 -
29/03:30pm - - - - - ESE 20 24 11 13 1014.2 - -
29/03:00pm - - - - - ESE 20 24 11 13 1014.3 1014.2 -
29/02:30pm - - - - - ESE 20 24 11 13 1014.5 - -
29/02:00pm - - - - - ESE 22 26 12 14 1014.6 1014.5 -
29/01:30pm - - - - - ESE 22 24 12 13 1014.8 - -
29/01:00pm - - - - - ESE 22 26 12 14 1015.1 1015.0 -
29/12:30pm - - - - - ESE 22 24 12 13 1015.4 - -
29/12:00pm - - - - - E 22 26 12 14 1015.7 1015.7 -
29/11:30am - - - - - E 24 30 13 16 1016.0 - -
29/11:00am - - - - - E 26 28 14 15 1016.1 1016.1 -
29/10:30am - - - - - ESE 28 33 15 18 1016.5 - -
29/10:00am - - - - - ESE 28 33 15 18 1016.6 1016.6 -
29/09:30am - - - - - SE 24 28 13 15 1016.5 - -
29/09:00am - - - - - SE 26 30 14 16 1016.4 1016.4 -
29/08:30am - - - - - SE 28 30 15 16 1016.3 - -
29/08:00am - - - - - SE 26 28 14 15 1016.2 1016.2 -
29/07:30am - - - - - SE 22 28 12 15 1016.0 - -
29/07:00am - - - - - SSE 20 26 11 14 1015.7 1015.7 -
29/06:30am - - - - - SSE 22 26 12 14 1015.5 - -
29/06:00am - - - - - SSE 20 24 11 13 1015.2 1015.3 -
29/05:30am - - - - - SSE 24 28 13 15 1015.3 - -
29/05:00am - - - - - SSE 24 24 13 13 1015.2 1015.2 -
29/04:30am - - - - - SSE 19 20 10 11 1015.4 - -
29/04:00am - - - - - SSE 22 28 12 15 1015.2 1015.2 -
29/03:30am - - - - - SSE 19 24 10 13 1015.4 - -
29/03:00am - - - - - SSE 20 26 11 14 1015.1 1015.2 -
29/02:30am - - - - - S 11 15 6 8 1015.3 - -
29/02:00am - - - - - S 13 17 7 9 1015.3 1015.3 -
29/01:30am - - - - - S 9 13 5 7 1015.5 - -
29/01:00am - - - - - S 9 15 5 8 1015.7 1015.7 -
29/12:30am - - - - - S 6 11 3 6 1016.0 - -
29/12:00am - - - - - S 9 13 5 7 1016.1 1016.2 -
 
Date/Time
WST
Temp
°C
App
Temp
°C
Dew
Point
Rel
Hum
%
Delta-T
°C
Wind Press
QNH
hPa
Press
MSL
hPa
Rain
since 9 am
mm
Dir
 
Spd
km/h
Gust
km/h
Spd
kts
Gust
kts
28/11:30pm - - - - - S 6 7 3 4 1016.2 - -
28/11:00pm - - - - - S 6 9 3 5 1016.2 1016.2 -
28/10:30pm - - - - - S 7 11 4 6 1016.2 - -
28/10:00pm - - - - - SSE 9 15 5 8 1016.4 1016.3 -
28/09:30pm - - - - - SSE 19 20 10 11 1016.3 - -
28/09:00pm - - - - - SE 19 24 10 13 1016.3 1016.3 -
28/08:30pm - - - - - SSE 19 20 10 11 1016.0 - -
28/08:00pm - - - - - SSE 19 22 10 12 1015.8 1016.0 -
28/07:30pm - - - - - SSE 20 24 11 13 1015.8 - -
28/07:00pm - - - - - SE 20 22 11 12 1015.5 1015.7 -
28/06:30pm - - - - - SE 20 22 11 12 1015.3 - -
28/06:00pm - - - - - SE 20 24 11 13 1015.0 1015.0 -
28/05:00pm - - - - - SE 22 26 12 14 1014.6 1014.6 -
28/04:30pm - - - - - SE 24 28 13 15 1014.4 - -
28/04:00pm - - - - - SE 24 26 13 14 1014.3 1014.3 -
28/03:30pm - - - - - SE 22 24 12 13 1014.4 - -
28/03:00pm - - - - - SE 20 24 11 13 1014.5 1014.5 -
28/02:30pm - - - - - SE 20 24 11 13 1014.8 - -
28/02:00pm - - - - - SE 22 24 12 13 1015.1 1015.0 -
28/01:30pm - - - - - SE 22 26 12 14 1015.7 - -

Other Formats:

Comma delimited format used in spreadsheet applications
http://www.bom.gov.au/fwo/IDW60801/IDW60801.94207.axf

JavaScript Object Notation format (JSON) in row-major order
http://www.bom.gov.au/fwo/IDW60801/IDW60801.94207.json